createdAt,value
2022-08-22T00:00:37.692Z,100834.25
2022-08-22T00:02:46.131Z,100904.44
2022-08-22T00:03:09.413Z,100853.88
2022-08-22T00:06:02.280Z,100836.31
2022-08-22T00:08:47.271Z,100834.47
2022-08-22T00:11:32.662Z,100843.31
2022-08-22T00:14:43.534Z,100834.47
2022-08-22T00:17:38.068Z,100835.22
2022-08-22T00:20:08.981Z,100839.13
2022-08-22T00:23:03.046Z,100836.56
2022-08-22T00:25:42.738Z,100839.41
2022-08-22T00:28:22.995Z,100842.97
2022-08-22T00:31:01.757Z,100812.75
2022-08-22T00:34:01.973Z,100834.13
2022-08-22T00:36:47.934Z,100831.44
2022-08-22T00:39:22.339Z,100843.22
2022-08-22T00:42:01.608Z,100828.00
2022-08-22T00:45:11.461Z,100838.78
2022-08-22T00:48:10.929Z,100833.28
2022-08-22T00:51:09.538Z,100830.56
2022-08-22T00:53:57.760Z,100843.91
2022-08-22T00:56:39.666Z,100841.22
2022-08-22T00:59:23.516Z,100841.34
2022-08-22T01:01:56.846Z,100836.84
2022-08-22T01:04:45.805Z,100827.06
2022-08-22T01:07:45.758Z,100837.81
2022-08-22T01:10:31.885Z,100835.97
2022-08-22T01:13:04.633Z,100838.66
2022-08-22T01:15:35.252Z,100837.81
2022-08-22T01:18:21.164Z,100847.88
2022-08-22T01:21:24.375Z,100843.47
2022-08-22T01:24:18.800Z,100838.09
2022-08-22T01:27:04.966Z,100852.50
2022-08-22T01:29:45.175Z,100844.69
2022-08-22T01:32:58.146Z,100843.00
2022-08-22T01:36:00.379Z,100851.34
2022-08-22T01:38:52.134Z,100839.69
2022-08-22T01:41:26.551Z,100849.03
2022-08-22T01:44:03.111Z,100850.16
2022-08-22T01:46:58.829Z,100841.31
2022-08-22T01:49:51.569Z,100845.16
2022-08-22T01:52:52.950Z,100851.50
2022-08-22T01:55:35.489Z,100840.84
2022-08-22T01:58:14.159Z,100845.41
2022-08-22T02:00:55.620Z,100853.47
2022-08-22T02:03:35.451Z,100849.06
2022-08-22T02:06:05.048Z,100852.59
2022-08-22T02:08:44.770Z,100843.78
2022-08-22T02:11:35.847Z,100841.09
2022-08-22T02:14:32.902Z,100832.78
2022-08-22T02:17:10.704Z,100832.28
2022-08-22T02:20:20.884Z,100834.13
2022-08-22T02:23:00.990Z,100843.19
2022-08-22T02:25:45.940Z,100840.50
2022-08-22T02:28:19.905Z,100837.91
2022-08-22T02:31:02.577Z,100837.09
2022-08-22T02:33:38.611Z,100831.97
2022-08-22T02:36:43.781Z,100839.03
2022-08-22T02:39:57.189Z,100849.06
2022-08-22T02:42:27.810Z,100847.50
2022-08-22T02:45:16.112Z,100833.81
2022-08-22T02:47:52.844Z,100836.38
2022-08-22T02:50:31.485Z,100837.97
2022-08-22T02:53:21.145Z,100829.91
2022-08-22T02:56:00.311Z,100838.09
2022-08-22T02:58:45.528Z,100841.75
2022-08-22T03:01:24.089Z,100839.19
2022-08-22T03:04:12.496Z,100840.06
2022-08-22T03:06:44.163Z,100837.50
2022-08-22T03:09:14.328Z,100835.78
2022-08-22T03:11:47.464Z,100836.75
2022-08-22T03:14:24.761Z,100834.91
2022-08-22T03:17:27.173Z,100835.06
2022-08-22T03:20:19.267Z,100823.53
2022-08-22T03:23:00.977Z,100836.16
2022-08-22T03:25:41.518Z,100836.28
2022-08-22T03:28:14.733Z,100814.97
2022-08-22T03:30:56.412Z,100836.28
2022-08-22T03:33:31.514Z,100840.94
2022-08-22T03:36:04.895Z,100847.28
2022-08-22T03:38:34.659Z,100846.56
2022-08-22T03:41:41.876Z,100847.66
2022-08-22T03:44:20.961Z,100863.94
2022-08-22T03:47:07.772Z,100859.53
2022-08-22T03:49:55.658Z,100875.81
2022-08-22T03:52:56.975Z,100867.00
2022-08-22T03:55:44.038Z,100856.34
2022-08-22T03:58:49.548Z,100863.72
2022-08-22T04:01:22.524Z,100871.78
2022-08-22T04:04:04.480Z,100871.91
2022-08-22T04:06:49.652Z,100872.16
2022-08-22T04:09:42.980Z,100870.31
2022-08-22T04:12:49.717Z,100864.09
2022-08-22T04:16:06.626Z,100877.66
2022-08-22T04:19:08.106Z,100873.25
2022-08-22T04:21:47.977Z,100874.34
2022-08-22T04:24:35.960Z,100877.13
2022-08-22T04:27:10.649Z,100841.91
2022-08-22T04:29:58.624Z,100876.63
2022-08-22T04:32:41.193Z,100890.72
2022-08-22T04:35:31.389Z,100891.69
2022-08-22T04:38:40.430Z,100897.22
2022-08-22T04:41:14.003Z,100879.69
2022-08-22T04:44:07.861Z,100905.50
2022-08-22T04:46:45.605Z,100914.56
2022-08-22T04:49:14.892Z,100909.91
2022-08-22T04:52:13.016Z,100911.84
2022-08-22T04:55:18.274Z,100906.47
2022-08-22T04:58:36.221Z,100902.78
2022-08-22T05:01:31.980Z,100918.84
2022-08-22T05:04:26.018Z,100917.97
2022-08-22T05:07:32.400Z,100898.50
2022-08-22T05:10:13.677Z,100924.94
2022-08-22T05:13:00.525Z,100915.06
2022-08-22T05:15:35.025Z,100915.06
2022-08-22T05:18:34.942Z,100924.81
2022-08-22T05:21:07.615Z,100916.63
2022-08-22T05:23:43.329Z,100924.50
2022-08-22T05:26:13.816Z,100917.16
2022-08-22T05:28:52.905Z,100910.16
2022-08-22T05:31:34.424Z,100934.75
2022-08-22T05:34:15.100Z,100930.13
2022-08-22T05:36:49.210Z,100944.22
2022-08-22T05:39:25.328Z,100941.28
2022-08-22T05:41:56.220Z,100914.72
2022-08-22T05:44:28.313Z,100945.31
2022-08-22T05:47:06.549Z,100940.53
2022-08-22T05:49:42.589Z,100955.56
2022-08-22T05:52:23.489Z,100946.28
2022-08-22T05:55:28.792Z,100962.91
2022-08-22T05:58:11.097Z,100951.78
2022-08-22T06:00:42.900Z,100955.09
2022-08-22T06:03:26.995Z,100961.09
2022-08-22T06:05:59.232Z,100966.09
2022-08-22T06:08:26.157Z,100972.06
2022-08-22T06:10:57.067Z,100961.78
2022-08-22T06:13:56.970Z,100959.59
2022-08-22T06:16:48.506Z,100970.88
2022-08-22T06:19:19.960Z,100962.53
2022-08-22T06:21:50.859Z,100977.44
2022-08-22T06:24:26.349Z,100984.28
2022-08-22T06:26:57.348Z,100979.78
2022-08-22T06:29:41.030Z,100984.03
2022-08-22T06:32:15.061Z,100987.22
2022-08-22T06:34:45.688Z,100991.28
2022-08-22T06:37:22.041Z,100967.75
2022-08-22T06:39:54.398Z,101003.28
2022-08-22T06:42:28.484Z,100996.78
2022-08-22T06:45:04.683Z,100994.81
2022-08-22T06:47:41.312Z,100992.84
2022-08-22T06:50:21.079Z,101001.06
2022-08-22T06:53:03.207Z,101006.09
2022-08-22T06:55:30.685Z,101014.88
2022-08-22T06:58:07.580Z,101005.69
2022-08-22T07:00:35.860Z,100997.50
2022-08-22T07:03:21.582Z,101020.38
2022-08-22T07:05:50.101Z,101018.53
2022-08-22T07:08:21.486Z,101004.19
2022-08-22T07:11:10.563Z,101021.34
2022-08-22T07:13:42.977Z,101019.22
2022-08-22T07:16:10.998Z,101025.34
2022-08-22T07:18:49.212Z,100998.19
2022-08-22T07:21:42.765Z,101027.19
2022-08-22T07:24:13.597Z,101031.94
2022-08-22T07:27:06.159Z,101041.63
2022-08-22T07:29:49.624Z,101033.16
2022-08-22T07:32:29.064Z,101005.63
2022-08-22T07:35:11.951Z,101049.81
2022-08-22T07:37:42.074Z,101045.00
2022-08-22T07:40:17.995Z,101057.41
2022-08-22T07:43:06.988Z,101055.41
2022-08-22T07:45:47.452Z,101074.03
2022-08-22T07:48:26.322Z,101074.78
2022-08-22T07:51:28.765Z,101079.91
2022-08-22T07:54:29.698Z,101070.81
2022-08-22T07:57:22.339Z,101086.63
2022-08-22T08:00:13.569Z,101095.34
2022-08-22T08:03:16.086Z,101094.13
2022-08-22T08:06:04.887Z,101096.41
2022-08-22T08:09:01.302Z,101085.28
2022-08-22T08:11:53.729Z,101081.22
2022-08-22T08:14:43.635Z,101121.69
2022-08-22T08:17:42.173Z,101103.50
2022-08-22T08:20:32.876Z,101105.81
2022-08-22T08:23:23.721Z,101109.97
2022-08-22T08:26:15.972Z,101114.97
2022-08-22T08:29:09.496Z,101115.56
2022-08-22T08:31:59.953Z,101127.25
2022-08-22T08:34:48.508Z,101127.94
2022-08-22T08:37:24.921Z,101135.91
2022-08-22T08:39:57.223Z,101125.97
2022-08-22T08:43:00.420Z,101134.69
2022-08-22T08:46:05.823Z,101142.53
2022-08-22T08:49:11.902Z,101144.97
2022-08-22T08:52:14.152Z,101147.28
2022-08-22T08:55:00.392Z,101148.72
2022-08-22T08:58:06.727Z,101150.88
2022-08-22T09:00:50.213Z,101151.22
2022-08-22T09:04:01.493Z,101150.81
2022-08-22T09:07:06.785Z,101159.41
2022-08-22T09:10:23.099Z,101167.09
2022-08-22T09:14:00.352Z,101162.66
2022-08-22T09:17:02.910Z,101154.97
2022-08-22T09:20:19.507Z,101164.84
2022-08-22T09:23:53.244Z,101174.16
2022-08-22T09:27:08.536Z,101187.75
2022-08-22T09:30:04.658Z,101192.09
2022-08-22T09:33:13.065Z,101186.59
2022-08-22T09:36:22.202Z,101190.06
2022-08-22T09:39:34.656Z,101199.25
2022-08-22T09:42:14.781Z,101202.03
2022-08-22T09:45:20.410Z,101218.19
2022-08-22T09:48:23.888Z,101202.56
2022-08-22T09:51:33.184Z,101215.13
2022-08-22T09:54:47.964Z,101203.72
2022-08-22T09:57:38.760Z,101218.28
2022-08-22T10:00:25.849Z,101223.28
2022-08-22T10:03:32.392Z,101217.84
2022-08-22T10:06:33.315Z,101229.00
2022-08-22T10:09:41.108Z,101234.69
2022-08-22T10:12:44.806Z,101249.09
2022-08-22T10:15:43.359Z,101254.41
2022-08-22T10:18:16.743Z,101259.41
2022-08-22T10:21:05.247Z,101262.97
2022-08-22T10:23:56.231Z,101270.81
2022-08-22T10:26:49.222Z,101242.13
2022-08-22T10:29:38.245Z,101258.53
2022-08-22T10:32:39.009Z,101267.63
2022-08-22T10:35:33.965Z,101270.50
2022-08-22T10:38:14.383Z,101270.47
2022-08-22T10:40:50.192Z,101269.75
2022-08-22T10:44:03.884Z,101278.84
2022-08-22T10:46:46.216Z,101260.75
2022-08-22T10:49:42.632Z,101276.31
2022-08-22T10:52:35.867Z,101282.88
2022-08-22T10:55:09.860Z,101293.00
2022-08-22T10:58:33.925Z,101295.13
2022-08-22T11:01:38.155Z,101299.66
2022-08-22T11:04:12.271Z,101289.63
2022-08-22T11:07:24.823Z,101307.19
2022-08-22T11:10:21.842Z,101319.13
2022-08-22T11:13:32.994Z,101323.09
2022-08-22T11:16:36.726Z,101328.66
2022-08-22T11:20:03.697Z,101324.34
2022-08-22T11:23:05.688Z,101335.31
2022-08-22T11:25:39.002Z,101340.31
2022-08-22T11:28:23.989Z,101350.56
2022-08-22T11:31:31.743Z,101363.88
2022-08-22T11:34:14.584Z,101359.13
2022-08-22T11:36:53.378Z,101359.00
2022-08-22T11:39:38.073Z,101371.13
2022-08-22T11:42:23.706Z,101376.66
2022-08-22T11:44:55.705Z,101370.59
2022-08-22T11:47:30.268Z,101378.47
2022-08-22T11:50:14.086Z,101380.88
2022-08-22T11:53:04.564Z,101383.28
2022-08-22T11:55:50.824Z,101385.69
2022-08-22T11:58:43.700Z,101381.38
2022-08-22T12:01:34.318Z,101385.03
2022-08-22T12:04:51.000Z,101392.44
2022-08-22T12:07:49.049Z,101399.00
2022-08-22T12:10:44.540Z,101376.13
2022-08-22T12:13:48.184Z,101406.84
2022-08-22T12:16:58.793Z,101396.66
2022-08-22T12:20:14.614Z,101406.47
2022-08-22T12:23:48.968Z,101407.00
2022-08-22T12:26:54.876Z,101418.03
2022-08-22T12:29:52.308Z,101415.78
2022-08-22T12:32:53.725Z,101418.81
2022-08-22T12:35:49.421Z,101425.28
2022-08-22T12:38:38.050Z,101437.03
2022-08-22T12:41:40.507Z,101439.59
2022-08-22T12:44:50.307Z,101449.16
2022-08-22T12:47:44.888Z,101444.03
2022-08-22T12:51:18.247Z,101447.59
2022-08-22T12:54:31.469Z,101430.81
2022-08-22T12:57:45.966Z,101456.94
2022-08-22T13:00:30.833Z,101452.66
2022-08-22T13:03:07.429Z,101463.56
2022-08-22T13:05:40.517Z,101456.06
2022-08-22T13:08:35.929Z,101460.28
2022-08-22T13:11:30.869Z,101464.69
2022-08-22T13:14:25.873Z,101458.72
2022-08-22T13:17:24.953Z,101477.19
2022-08-22T13:20:28.269Z,101469.94
2022-08-22T13:23:16.165Z,101479.25
2022-08-22T13:26:33.771Z,101482.25
2022-08-22T13:29:39.158Z,101489.72
2022-08-22T13:32:44.479Z,101491.03
2022-08-22T13:35:44.669Z,101497.19
2022-08-22T13:39:05.294Z,101498.81
2022-08-22T13:41:59.463Z,101479.97
2022-08-22T13:45:02.522Z,101512.56
2022-08-22T13:47:53.014Z,101507.88
2022-08-22T13:50:53.648Z,101523.88
2022-08-22T13:54:11.060Z,101521.63
2022-08-22T13:57:17.660Z,101527.06
2022-08-22T14:00:25.423Z,101534.44
2022-08-22T14:03:41.285Z,101540.63
2022-08-22T14:06:56.979Z,101548.91
2022-08-22T14:10:33.280Z,101554.38
2022-08-22T14:13:20.968Z,101556.94
2022-08-22T14:16:10.417Z,101564.94
2022-08-22T14:19:06.181Z,101565.50
2022-08-22T14:22:07.240Z,101564.22
2022-08-22T14:25:07.899Z,101572.53
2022-08-22T14:28:09.835Z,101576.34
2022-08-22T14:31:16.924Z,101560.72
2022-08-22T14:34:22.860Z,101579.78
2022-08-22T14:37:20.378Z,101591.66
2022-08-22T14:40:13.676Z,101593.50
2022-08-22T14:42:45.164Z,101591.06
2022-08-22T14:45:38.149Z,101608.22
2022-08-22T14:48:31.599Z,101601.91
2022-08-22T14:51:17.265Z,101606.47
2022-08-22T14:53:44.332Z,101609.56
2022-08-22T14:56:17.992Z,101617.72
2022-08-22T14:58:58.311Z,101615.41
2022-08-22T15:01:29.983Z,101622.88
2022-08-22T15:04:10.046Z,101619.44
2022-08-22T15:06:57.849Z,101625.84
2022-08-22T15:09:54.288Z,101625.84
2022-08-22T15:12:48.736Z,101633.72
2022-08-22T15:15:58.309Z,101636.44
2022-08-22T15:18:51.747Z,101639.84
2022-08-22T15:21:43.756Z,101641.59
2022-08-22T15:24:33.817Z,101646.16
2022-08-22T15:27:20.958Z,101648.13
2022-08-22T15:30:20.435Z,101646.00
2022-08-22T15:33:08.800Z,101651.06
2022-08-22T15:35:56.613Z,101647.06
2022-08-22T15:38:53.414Z,101659.38
2022-08-22T15:41:55.248Z,101659.84
2022-08-22T15:44:44.237Z,101655.81
2022-08-22T15:47:47.710Z,101658.25
2022-08-22T15:50:49.212Z,101660.56
2022-08-22T15:53:41.831Z,101669.03
2022-08-22T15:56:31.657Z,101661.03
2022-08-22T15:59:48.193Z,101665.63
2022-08-22T16:02:53.040Z,101668.19
2022-08-22T16:06:01.813Z,101671.06
2022-08-22T16:08:52.040Z,101675.09
2022-08-22T16:11:57.287Z,101680.22
2022-08-22T16:15:05.889Z,101689.63
2022-08-22T16:18:03.300Z,101679.78
2022-08-22T16:20:53.419Z,101686.91
2022-08-22T16:23:40.733Z,101651.28
2022-08-22T16:26:29.625Z,101690.63
2022-08-22T16:29:23.582Z,101699.34
2022-08-22T16:32:10.368Z,101701.38
2022-08-22T16:34:57.306Z,101710.50
2022-08-22T16:38:00.589Z,101712.09
2022-08-22T16:40:47.753Z,101710.38
2022-08-22T16:43:20.061Z,101713.25
2022-08-22T16:45:48.658Z,101721.69
2022-08-22T16:48:25.927Z,101717.25
2022-08-22T16:51:18.756Z,101726.56
2022-08-22T16:54:04.192Z,101725.56
2022-08-22T16:57:01.007Z,101731.84
2022-08-22T16:59:42.033Z,101733.56
2022-08-22T17:02:33.444Z,101739.00
2022-08-22T17:05:09.649Z,101732.41
2022-08-22T17:07:36.858Z,101735.84
2022-08-22T17:10:30.875Z,101741.56
2022-08-22T17:12:57.749Z,101740.44
2022-08-22T17:15:39.936Z,101746.84
2022-08-22T17:21:14.804Z,101750.72
2022-08-22T17:23:50.747Z,101743.72
2022-08-22T17:26:45.797Z,101753.03
2022-08-22T17:29:41.976Z,101766.25
2022-08-22T17:32:15.199Z,101766.06
2022-08-22T17:34:57.402Z,101770.59
2022-08-22T17:37:43.366Z,101777.53
2022-08-22T17:40:38.505Z,101780.75
2022-08-22T17:43:05.583Z,101786.72
2022-08-22T17:45:35.676Z,101791.84
2022-08-22T17:48:07.940Z,101790.63
2022-08-22T17:50:45.093Z,101793.72
2022-08-22T17:53:22.336Z,101793.38
2022-08-22T17:56:03.288Z,101790.69
2022-08-22T17:58:43.650Z,101808.66
2022-08-22T18:01:35.849Z,101807.31
2022-08-22T18:04:07.053Z,101813.38
2022-08-22T18:06:38.857Z,101815.16
2022-08-22T18:09:17.888Z,101822.59
2022-08-22T18:11:56.018Z,101822.72
2022-08-22T18:14:44.181Z,101808.81
2022-08-22T18:17:41.479Z,101829.13
2022-08-22T18:20:26.132Z,101823.94
2022-08-22T18:23:02.369Z,101830.72
2022-08-22T18:25:31.894Z,101828.63
2022-08-22T18:28:12.813Z,101817.91
2022-08-22T18:30:48.693Z,101847.53
2022-08-22T18:33:35.912Z,101848.03
2022-08-22T18:36:10.828Z,101860.28
2022-08-22T18:39:05.448Z,101862.88
2022-08-22T18:41:57.423Z,101863.66
2022-08-22T18:44:28.771Z,101874.97
2022-08-22T18:47:24.789Z,101876.44
2022-08-22T18:49:54.835Z,101874.94
2022-08-22T18:52:27.840Z,101874.50
2022-08-22T18:55:27.720Z,101867.81
2022-08-22T18:58:32.519Z,101877.28
2022-08-22T19:01:17.912Z,101877.63
2022-08-22T19:04:03.749Z,101883.47
2022-08-22T19:06:47.748Z,101875.31
2022-08-22T19:09:21.085Z,101877.47
2022-08-22T19:12:01.685Z,101882.50
2022-08-22T19:14:43.605Z,101883.91
2022-08-22T19:17:58.960Z,101893.44
2022-08-22T19:20:47.480Z,101892.91
2022-08-22T19:23:32.908Z,101892.72
2022-08-22T19:26:27.865Z,101906.66
2022-08-22T19:29:25.794Z,101918.78
2022-08-22T19:31:59.905Z,101919.28
2022-08-22T19:34:30.921Z,101923.25
2022-08-22T19:37:30.750Z,101926.63
2022-08-22T19:40:10.022Z,101935.16
2022-08-22T19:42:43.348Z,101922.53
2022-08-22T19:45:26.675Z,101929.94
2022-08-22T19:47:59.646Z,101930.28
2022-08-22T19:50:33.114Z,101931.78
2022-08-22T19:53:16.688Z,101926.03
2022-08-22T19:56:02.723Z,101929.06
2022-08-22T19:58:35.494Z,101936.69
2022-08-22T20:01:44.016Z,101939.06
2022-08-22T20:04:37.114Z,101955.66
2022-08-22T20:07:38.321Z,101947.97
2022-08-22T20:10:26.009Z,101961.75
2022-08-22T20:13:18.557Z,101963.97
2022-08-22T20:16:27.069Z,101968.91
2022-08-22T20:19:06.386Z,101972.00
2022-08-22T20:21:41.283Z,101983.19
2022-08-22T20:24:25.609Z,101998.78
2022-08-22T20:27:13.502Z,101983.50
2022-08-22T20:29:46.616Z,101989.69
2022-08-22T20:32:16.857Z,102000.94
2022-08-22T20:34:45.672Z,101982.50
2022-08-22T20:37:32.426Z,102017.69
2022-08-22T20:40:25.733Z,102021.72
2022-08-22T20:43:23.617Z,102030.19
2022-08-22T20:46:24.327Z,102032.38
2022-08-22T20:48:54.813Z,102038.16
2022-08-22T20:51:27.725Z,102043.06
2022-08-22T20:53:57.186Z,102037.06
2022-08-22T20:57:01.459Z,102037.44
2022-08-22T20:59:37.997Z,102038.56
2022-08-22T21:02:19.060Z,102051.38
2022-08-22T21:04:52.924Z,102044.31
2022-08-22T21:07:26.215Z,102046.34
2022-08-22T21:10:22.260Z,102050.06
2022-08-22T21:13:07.754Z,102052.09
2022-08-22T21:15:41.794Z,102057.69
2022-08-22T21:18:10.732Z,102021.38
2022-08-22T21:20:39.001Z,102058.88
2022-08-22T21:23:12.125Z,102062.63
2022-08-22T21:26:02.157Z,102061.94
2022-08-22T21:28:33.497Z,102063.75
2022-08-22T21:31:09.773Z,102070.09
2022-08-22T21:33:42.733Z,102058.16
2022-08-22T21:36:12.521Z,102082.00
2022-08-22T21:39:00.729Z,102078.63
2022-08-22T21:41:59.572Z,102083.31
2022-08-22T21:44:40.439Z,102083.41
2022-08-22T21:47:37.692Z,102088.13
2022-08-22T21:50:26.765Z,102098.19
2022-08-22T21:52:53.707Z,102097.38
2022-08-22T21:55:43.649Z,102103.81
2022-08-22T21:58:35.677Z,102110.34
2022-08-22T22:01:27.937Z,102124.91
2022-08-22T22:03:55.591Z,102125.94
2022-08-22T22:06:22.503Z,102118.16
2022-08-22T22:08:49.678Z,102127.13
2022-08-22T22:11:17.323Z,102113.88
2022-08-22T22:13:45.295Z,102121.28
2022-08-22T22:16:13.200Z,102118.84
2022-08-22T22:18:40.686Z,102110.50
2022-08-22T22:21:09.422Z,102124.56
2022-08-22T22:23:36.411Z,102122.91
2022-08-22T22:26:05.298Z,102123.06
2022-08-22T22:28:36.704Z,102124.16
2022-08-22T22:31:04.484Z,102116.69
2022-08-22T22:33:34.540Z,102135.44
2022-08-22T22:36:10.040Z,102136.53
2022-08-22T22:38:38.746Z,102135.84
2022-08-22T22:41:05.794Z,102143.19
2022-08-22T22:43:32.881Z,102141.56
2022-08-22T22:46:00.032Z,102152.38
2022-08-22T22:48:27.164Z,102156.00
2022-08-22T22:50:55.228Z,102155.38
2022-08-22T22:53:33.768Z,102154.69
2022-08-22T22:56:09.908Z,102140.09
2022-08-22T22:58:38.075Z,102153.19
2022-08-22T23:01:12.868Z,102158.72
2022-08-22T23:03:40.072Z,102161.56
2022-08-22T23:06:12.172Z,102166.16
2022-08-22T23:08:39.708Z,102172.47
2022-08-22T23:11:15.784Z,102169.94
2022-08-22T23:13:43.307Z,102173.59
2022-08-22T23:16:17.153Z,102173.75
2022-08-22T23:18:44.732Z,102181.00
2022-08-22T23:21:20.221Z,102189.22
2022-08-22T23:23:48.301Z,102172.09
2022-08-22T23:26:16.267Z,102186.84
2022-08-22T23:28:43.686Z,102194.19
2022-08-22T23:31:18.486Z,102202.41
2022-08-22T23:33:46.321Z,102198.16
2022-08-22T23:36:16.058Z,102202.72
2022-08-22T23:38:43.964Z,102207.41
2022-08-22T23:41:12.700Z,102200.44
2022-08-22T23:43:45.138Z,102215.84
2022-08-22T23:46:14.188Z,102213.50
2022-08-22T23:48:41.764Z,102227.00
2022-08-22T23:51:13.680Z,102225.50
2022-08-22T23:53:41.382Z,102215.41
2022-08-22T23:56:19.309Z,102235.00
2022-08-22T23:58:49.029Z,102231.66
